Time;durP1;ratioP1;P1;durP2;ratioP2;P2;SDS_P1;SDS_P2;PMS_P1;PMS_P2;Temp;Humidity;BMP_temperature;BMP_pressure;BME280_temperature;BME280_humidity;BME280_pressure;Samples;Min_cycle;Max_cycle;Signal;HPM_P1;HPM_P2
2022/02/21 00:01:48;;;;;;;;;5.25;3.75;;;;;10.91;62.06;100126.66;5120110;27;51786;-60
2022/02/21 00:04:14;;;;;;;;;5.75;4.00;;;;;10.88;62.42;100132.19;5120504;27;45330;-60
2022/02/21 00:06:43;;;;;;;;;7.00;2.50;;;;;10.86;62.43;100146.47;5119710;27;63944;-60
2022/02/21 00:09:08;;;;;;;;;7.50;5.00;;;;;10.80;61.92;100140.84;5120566;27;45318;-59
2022/02/21 00:11:34;;;;;;;;;6.50;4.00;;;;;10.77;61.74;100143.75;5119252;27;46340;-62
2022/02/21 00:13:59;;;;;;;;;8.50;4.00;;;;;10.75;61.79;100145.69;5120272;27;45362;-61
2022/02/21 00:16:24;;;;;;;;;8.75;4.00;;;;;10.74;61.64;100151.13;5119483;27;68124;-61
2022/02/21 00:18:50;;;;;;;;;6.75;3.25;;;;;10.73;61.70;100158.16;5119002;27;45634;-61
2022/02/21 00:21:15;;;;;;;;;6.75;4.00;;;;;10.72;61.60;100160.94;5119289;27;67417;-61
2022/02/21 00:23:41;;;;;;;;;5.50;5.50;;;;;10.72;61.74;100166.19;5119309;27;68123;-61
2022/02/21 00:26:06;;;;;;;;;3.50;3.50;;;;;10.71;61.12;100177.69;5120188;27;45196;-61
2022/02/21 00:28:31;;;;;;;;;3.25;3.00;;;;;10.68;60.34;100186.66;5119060;27;70487;-61
2022/02/21 00:30:57;;;;;;;;;5.50;2.50;;;;;10.66;59.58;100193.88;5119044;27;67686;-61
2022/02/21 00:33:22;;;;;;;;;6.25;3.00;;;;;10.61;58.44;100202.19;5120037;27;45395;-61
2022/02/21 00:35:48;;;;;;;;;3.00;2.00;;;;;10.52;56.34;100222.28;5120365;27;45405;-60
2022/02/21 00:38:13;;;;;;;;;5.00;2.00;;;;;10.39;55.64;100242.78;5120189;27;45358;-61
2022/02/21 00:40:38;;;;;;;;;5.25;2.25;;;;;10.24;55.43;100230.06;5118883;27;74413;-61
2022/02/21 00:43:04;;;;;;;;;2.75;1.50;;;;;10.10;55.98;100243.63;5119436;27;48954;-61
2022/02/21 00:45:29;;;;;;;;;4.50;3.00;;;;;10.02;54.96;100239.06;5118102;27;54534;-61
2022/02/21 00:47:55;;;;;;;;;3.25;1.00;;;;;9.92;54.80;100223.34;5101274;27;45504;-61
2022/02/21 00:50:20;;;;;;;;;5.00;1.00;;;;;9.86;54.73;100239.66;5119712;27;46132;-62
2022/02/21 00:52:45;;;;;;;;;3.00;2.50;;;;;9.80;54.30;100233.13;5118772;27;67072;-62
2022/02/21 00:55:11;;;;;;;;;4.75;2.25;;;;;9.74;54.11;100238.97;5119651;27;45380;-59
2022/02/21 00:57:36;;;;;;;;;5.25;2.00;;;;;9.69;53.55;100240.31;5118732;27;68026;-59
2022/02/21 01:00:04;;;;;;;;;3.50;2.75;;;;;9.65;53.34;100256.34;5118714;27;65815;-60
2022/02/21 01:02:32;;;;;;;;;3.25;1.50;;;;;9.58;53.09;100255.22;5119632;27;45324;-61
2022/02/21 01:04:57;;;;;;;;;4.50;2.00;;;;;9.52;53.87;100276.78;5119659;27;45220;-61
2022/02/21 01:07:23;;;;;;;;;2.50;2.00;;;;;9.44;54.46;100274.81;5101108;27;45197;-62
2022/02/21 01:09:48;;;;;;;;;1.00;1.00;;;;;9.42;53.96;100281.16;5118337;27;75679;-61
2022/02/21 01:12:14;;;;;;;;;2.75;2.75;;;;;9.37;53.75;100299.91;5118544;27;68590;-62
2022/02/21 01:14:39;;;;;;;;;3.00;0.50;;;;;9.31;54.17;100305.69;5119545;27;45216;-61
2022/02/21 01:17:04;;;;;;;;;2.75;2.50;;;;;9.27;55.04;100312.19;5118655;27;66202;-61
2022/02/21 01:19:30;;;;;;;;;4.50;1.00;;;;;9.22;56.24;100320.44;5100030;27;69966;-62
2022/02/21 01:21:55;;;;;;;;;3.00;2.00;;;;;9.18;56.58;100309.41;5119299;27;45462;-62
2022/02/21 01:24:21;;;;;;;;;3.75;2.00;;;;;9.14;56.70;100313.25;5118562;27;63981;-61
2022/02/21 01:26:46;;;;;;;;;2.33;1.00;;;;;9.10;56.99;100322.31;5099334;27;61465;-59
2022/02/21 01:29:11;;;;;;;;;2.50;1.00;;;;;9.06;57.10;100321.75;5118707;27;53463;-62
2022/02/21 01:31:37;;;;;;;;;3.75;1.00;;;;;9.04;57.64;100318.41;5119065;27;45460;-62
2022/02/21 01:34:02;;;;;;;;;1.00;1.00;;;;;9.03;57.04;100318.56;5118437;27;66125;-61
2022/02/21 01:36:29;;;;;;;;;1.75;1.00;;;;;8.99;57.07;100319.78;5118621;27;57770;-61
2022/02/21 01:38:54;;;;;;;;;2.00;1.00;;;;;8.97;57.33;100325.19;5118993;27;46268;-61
2022/02/21 01:41:20;;;;;;;;;5.00;2.00;;;;;8.95;57.31;100336.72;5118367;27;58895;-60
2022/02/21 01:43:47;;;;;;;;;3.00;1.50;;;;;8.93;57.65;100349.97;5117737;27;45636;-61
2022/02/21 01:46:12;;;;;;;;;2.50;1.50;;;;;8.91;58.17;100375.47;5100855;27;45290;-62
2022/02/21 01:48:38;;;;;;;;;2.00;1.00;;;;;8.85;58.08;100381.22;5118586;27;46982;-61
2022/02/21 01:51:04;;;;;;;;;1.75;0.75;;;;;8.73;58.28;100354.28;5117929;27;68286;-60
2022/02/21 01:53:29;;;;;;;;;1.25;1.25;;;;;8.64;57.69;100357.66;5117960;27;65672;-61
2022/02/21 01:55:55;;;;;;;;;0.00;0.00;;;;;8.55;57.75;100349.59;5099718;27;45354;-61
2022/02/21 01:58:20;;;;;;;;;3.50;0.00;;;;;8.49;57.35;100344.03;5099264;27;72899;-62
2022/02/21 02:00:45;;;;;;;;;2.00;2.00;;;;;8.43;57.67;100343.56;5118649;27;45316;-59
2022/02/21 02:03:11;;;;;;;;;3.25;1.00;;;;;8.36;57.06;100345.03;5117841;27;62870;-59
2022/02/21 02:05:36;;;;;;;;;3.00;2.00;;;;;8.28;56.41;100348.25;5118354;27;51335;-62
2022/02/21 02:08:02;;;;;;;;;1.00;0.25;;;;;8.24;56.22;100344.25;5098838;27;72775;-61
2022/02/21 02:10:27;;;;;;;;;3.50;1.50;;;;;8.20;56.17;100331.53;5118427;27;45471;-61
2022/02/21 02:12:53;;;;;;;;;2.00;0.75;;;;;8.16;56.08;100342.25;5099729;27;58169;-61
2022/02/21 02:15:21;;;;;;;;;2.00;0.00;;;;;8.15;55.81;100343.22;5118565;27;45325;-61
2022/02/21 02:17:46;;;;;;;;;2.25;0.50;;;;;8.12;55.83;100340.84;5117431;27;45481;-61
2022/02/21 02:20:12;;;;;;;;;3.25;2.00;;;;;8.10;56.11;100342.75;5118382;27;45357;-59
2022/02/21 02:22:38;;;;;;;;;1.00;1.00;;;;;8.09;56.12;100338.47;5118373;27;45381;-59
2022/02/21 02:25:04;;;;;;;;;1.75;0.75;;;;;8.08;56.29;100339.44;5118349;27;45317;-60
2022/02/21 02:27:29;;;;;;;;;0.00;0.00;;;;;8.08;56.49;100343.84;5118120;27;45314;-60
2022/02/21 02:29:55;;;;;;;;;0.00;0.00;;;;;8.08;56.61;100328.97;5118001;27;45268;-61
2022/02/21 02:32:21;;;;;;;;;1.00;0.00;;;;;8.08;56.82;100338.63;5118366;27;45271;-61
2022/02/21 02:34:47;;;;;;;;;1.00;0.00;;;;;8.07;56.90;100337.75;5118349;27;45252;-61
2022/02/21 02:37:13;;;;;;;;;0.75;0.00;;;;;8.08;57.15;100334.19;5117944;27;47025;-60
2022/02/21 02:39:38;;;;;;;;;0.00;0.00;;;;;8.07;57.07;100335.16;5118004;27;45462;-61
2022/02/21 02:42:05;;;;;;;;;1.00;0.00;;;;;8.06;57.38;100341.34;5118184;27;45276;-60
2022/02/21 02:44:30;;;;;;;;;0.00;0.00;;;;;8.05;57.63;100333.63;5118021;27;45235;-61
2022/02/21 02:46:56;;;;;;;;;0.25;0.25;;;;;8.06;58.00;100341.34;5116919;27;69103;-61
2022/02/21 02:49:21;;;;;;;;;1.25;1.00;;;;;8.06;58.17;100336.09;5117079;27;63943;-61
2022/02/21 02:51:47;;;;;;;;;0.25;0.25;;;;;8.06;58.38;100335.28;5117022;27;64380;-61
2022/02/21 02:54:13;;;;;;;;;4.50;2.00;;;;;8.07;58.48;100337.75;5117894;27;45519;-61
2022/02/21 02:56:39;;;;;;;;;3.25;0.00;;;;;8.08;58.72;100342.03;5117543;27;45227;-60
2022/02/21 02:59:05;;;;;;;;;1.00;1.00;;;;;8.08;58.75;100339.44;5116733;27;45358;-61
2022/02/21 03:01:30;;;;;;;;;2.00;0.25;;;;;8.07;58.72;100345.63;5117920;27;45684;-60
2022/02/21 03:03:55;;;;;;;;;3.25;1.00;;;;;8.07;59.09;100345.63;5117604;27;45533;-61
2022/02/21 03:06:21;;;;;;;;;4.75;1.00;;;;;8.07;58.88;100332.53;5116923;27;64723;-61
2022/02/21 03:08:46;;;;;;;;;4.25;1.00;;;;;8.06;59.11;100333.50;5117524;27;45410;-60
2022/02/21 03:11:12;;;;;;;;;4.75;1.75;;;;;8.06;59.34;100332.66;5116992;27;60336;-60
2022/02/21 03:13:37;;;;;;;;;2.75;1.75;;;;;8.08;59.29;100336.00;5117494;27;45410;-61
2022/02/21 03:16:03;;;;;;;;;4.50;1.75;;;;;8.07;59.13;100329.91;5115358;27;62758;-62
2022/02/21 03:18:28;;;;;;;;;5.00;0.00;;;;;8.06;59.43;100324.81;5117367;27;45320;-61
2022/02/21 03:20:53;;;;;;;;;3.25;3.00;;;;;8.07;59.17;100316.00;5116834;27;63471;-60
2022/02/21 03:23:19;;;;;;;;;5.25;1.75;;;;;8.08;58.73;100307.22;5116670;27;62433;-61
2022/02/21 03:25:44;;;;;;;;;7.00;1.00;;;;;8.08;58.80;100321.09;5116637;27;66464;-61
2022/02/21 03:28:10;;;;;;;;;4.00;2.00;;;;;8.08;58.46;100326.34;5116495;27;62004;-60
2022/02/21 03:30:35;;;;;;;;;6.00;1.75;;;;;8.09;58.16;100322.78;5117326;27;45801;-61
2022/02/21 03:33:01;;;;;;;;;3.75;2.00;;;;;8.11;58.03;100322.66;5117269;27;45225;-60
2022/02/21 03:35:27;;;;;;;;;7.25;2.75;;;;;8.13;57.91;100323.38;5117123;27;45467;-60
2022/02/21 03:37:53;;;;;;;;;5.75;1.25;;;;;8.14;57.73;100328.47;5117245;27;45189;-61
2022/02/21 03:40:18;;;;;;;;;7.25;3.00;;;;;8.16;57.34;100312.66;5116598;27;63315;-60
2022/02/21 03:42:43;;;;;;;;;6.75;2.25;;;;;8.19;57.19;100329.88;5116546;27;65470;-60
2022/02/21 03:45:09;;;;;;;;;3.00;2.00;;;;;8.19;56.77;100319.41;5117140;27;45983;-61
2022/02/21 03:47:34;;;;;;;;;5.25;3.00;;;;;8.19;56.48;100324.66;5116801;27;49384;-61
2022/02/21 03:50:00;;;;;;;;;3.25;1.50;;;;;8.20;56.33;100336.78;5117279;27;45245;-61
2022/02/21 03:52:25;;;;;;;;;2.50;1.75;;;;;8.21;56.50;100322.72;5117143;27;45551;-61
2022/02/21 03:54:51;;;;;;;;;4.00;1.50;;;;;8.23;56.14;100315.59;5117021;27;46148;-61
2022/02/21 03:57:17;;;;;;;;;6.00;2.00;;;;;8.24;56.08;100314.63;5116970;27;45313;-61
2022/02/21 03:59:42;;;;;;;;;3.25;2.50;;;;;8.25;55.84;100321.53;5115819;27;45452;-61
2022/02/21 04:02:08;;;;;;;;;5.50;1.50;;;;;8.27;55.65;100322.22;5117016;27;45484;-61
2022/02/21 04:04:33;;;;;;;;;3.00;2.00;;;;;8.28;55.28;100340.41;5116623;27;49805;-60
2022/02/21 04:06:58;;;;;;;;;5.00;2.00;;;;;8.30;55.48;100338.50;5115771;27;70892;-61
2022/02/21 04:09:24;;;;;;;;;4.00;1.00;;;;;8.32;55.25;100347.06;5097474;27;68067;-60
2022/02/21 04:11:49;;;;;;;;;4.75;2.00;;;;;8.35;55.08;100343.38;5115884;27;68059;-61
2022/02/21 04:14:15;;;;;;;;;6.50;3.50;;;;;8.37;55.21;100344.09;5116749;27;45928;-60
2022/02/21 04:16:40;;;;;;;;;4.25;1.00;;;;;8.39;55.42;100342.16;5116709;27;45382;-61
2022/02/21 04:19:06;;;;;;;;;5.50;2.00;;;;;8.41;55.72;100337.63;5118808;27;45723;-60
2022/02/21 04:21:31;;;;;;;;;2.75;1.00;;;;;8.43;55.62;100342.72;5101427;27;53868;-60
2022/02/21 04:23:57;;;;;;;;;5.00;1.75;;;;;8.45;55.86;100341.66;5120181;27;46295;-61
2022/02/21 04:26:22;;;;;;;;;1.00;1.00;;;;;8.46;55.79;100342.47;5120026;27;45389;-61
2022/02/21 04:28:48;;;;;;;;;6.25;1.50;;;;;8.46;56.19;100332.00;5120310;27;45284;-61
2022/02/21 04:31:17;;;;;;;;;3.00;1.00;;;;;8.45;56.03;100349.53;5120046;27;45156;-60
2022/02/21 04:33:46;;;;;;;;;2.75;0.00;;;;;8.46;55.93;100361.66;5120105;27;46091;-61
2022/02/21 04:36:13;;;;;;;;;4.25;2.00;;;;;8.45;56.26;100352.13;5120038;27;45328;-61
2022/02/21 04:38:38;;;;;;;;;2.25;2.00;;;;;8.45;56.55;100354.75;5120187;27;45442;-60
2022/02/21 04:41:04;;;;;;;;;3.00;2.00;;;;;8.46;56.76;100343.31;5120126;27;45362;-61
2022/02/21 04:43:29;;;;;;;;;2.00;1.00;;;;;8.47;56.84;100344.13;5119758;27;46420;-60
2022/02/21 04:45:55;;;;;;;;;8.00;1.00;;;;;8.49;57.02;100344.88;5119987;27;45433;-61
2022/02/21 04:48:23;;;;;;;;;3.00;1.75;;;;;8.48;57.00;100340.56;5120093;27;45447;-60
2022/02/21 04:50:49;;;;;;;;;2.50;1.75;;;;;8.48;57.04;100343.19;5119816;27;45467;-61
2022/02/21 04:53:14;;;;;;;;;2.50;1.75;;;;;8.46;57.25;100337.25;5119771;27;45997;-61
2022/02/21 04:55:39;;;;;;;;;3.50;1.00;;;;;8.44;57.04;100339.16;5119103;27;64502;-60
2022/02/21 04:58:05;;;;;;;;;4.00;1.00;;;;;8.42;57.21;100362.88;5118980;27;63708;-61
2022/02/21 05:00:30;;;;;;;;;5.00;2.25;;;;;8.41;57.18;100353.34;5118557;27;68864;-60
2022/02/21 05:02:55;;;;;;;;;3.50;1.50;;;;;8.40;57.27;100351.69;5117860;27;60881;-61
2022/02/21 05:05:21;;;;;;;;;5.00;1.00;;;;;8.38;57.62;100340.50;5118634;27;68762;-61
2022/02/21 05:07:46;;;;;;;;;6.75;2.00;;;;;8.38;57.80;100335.28;5119742;27;45345;-61
2022/02/21 05:10:12;;;;;;;;;3.75;1.00;;;;;8.39;57.72;100328.22;5118952;27;59783;-60
2022/02/21 05:12:37;;;;;;;;;3.75;2.00;;;;;8.39;57.65;100316.00;5119477;27;45962;-61
2022/02/21 05:15:03;;;;;;;;;5.00;1.00;;;;;8.39;57.47;100334.31;5119291;27;45218;-60
2022/02/21 05:17:29;;;;;;;;;3.25;1.25;;;;;8.40;57.15;100332.50;5119381;27;45180;-60
2022/02/21 05:19:54;;;;;;;;;3.75;2.00;;;;;8.39;57.35;100331.69;5119502;27;45266;-60
2022/02/21 05:22:20;;;;;;;;;2.25;1.25;;;;;8.37;57.21;100340.63;5118454;27;65372;-61
2022/02/21 05:24:46;;;;;;;;;5.25;1.00;;;;;8.37;57.28;100353.72;5119256;27;45364;-60
2022/02/21 05:27:12;;;;;;;;;1.50;1.00;;;;;8.38;57.27;100343.13;5119280;27;45408;-61
2022/02/21 05:29:37;;;;;;;;;3.00;1.50;;;;;8.38;57.13;100350.97;5117710;27;57777;-61
2022/02/21 05:32:03;;;;;;;;;2.75;1.25;;;;;8.37;57.28;100341.47;5118067;27;61322;-61
2022/02/21 05:34:28;;;;;;;;;2.00;1.00;;;;;8.36;57.16;100334.56;5118927;27;47790;-61
2022/02/21 05:36:54;;;;;;;;;3.50;1.25;;;;;8.38;56.94;100324.81;5118381;27;62935;-61
2022/02/21 05:39:19;;;;;;;;;1.50;1.50;;;;;8.37;57.48;100331.00;5118245;27;64073;-61
2022/02/21 05:41:44;;;;;;;;;4.75;1.00;;;;;8.38;57.26;100335.28;5118055;27;71312;-62
2022/02/21 05:44:10;;;;;;;;;2.00;2.00;;;;;8.36;57.19;100325.88;5118950;27;45333;-61
2022/02/21 05:46:37;;;;;;;;;3.75;1.00;;;;;8.34;57.34;100319.94;5118251;27;63223;-59
2022/02/21 05:49:03;;;;;;;;;2.50;2.00;;;;;8.33;57.53;100324.34;5119066;27;45533;-61
2022/02/21 05:51:28;;;;;;;;;2.25;0.75;;;;;8.34;57.36;100328.63;5118719;27;46908;-61
2022/02/21 05:53:54;;;;;;;;;1.25;0.75;;;;;8.33;57.35;100324.34;5118695;27;45456;-59
2022/02/21 05:56:19;;;;;;;;;3.00;1.00;;;;;8.33;57.29;100332.19;5100617;27;45633;-61
2022/02/21 05:58:45;;;;;;;;;4.50;1.75;;;;;8.32;57.40;100330.53;5118864;27;45208;-62
2022/02/21 06:01:10;;;;;;;;;2.75;1.25;;;;;8.30;57.48;100348.16;5118604;27;46089;-62
2022/02/21 06:03:36;;;;;;;;;2.50;1.50;;;;;8.29;57.54;100355.16;5118555;27;45303;-61
2022/02/21 06:06:01;;;;;;;;;1.75;0.75;;;;;8.27;57.44;100357.06;5118713;27;45353;-61
2022/02/21 06:08:28;;;;;;;;;3.00;0.25;;;;;8.25;57.60;100382.53;5118606;27;45546;-63
2022/02/21 06:10:54;;;;;;;;;0.25;0.25;;;;;8.24;57.56;100385.28;5117669;27;46200;-62
2022/02/21 06:13:19;;;;;;;;;1.00;1.00;;;;;8.20;57.42;100384.72;5118403;27;45236;-61
2022/02/21 06:15:44;;;;;;;;;1.00;0.00;;;;;8.16;57.75;100388.53;5117622;27;67820;-62
2022/02/21 06:18:10;;;;;;;;;0.25;0.25;;;;;8.14;57.64;100386.03;5118401;27;45532;-61
2022/02/21 06:20:35;;;;;;;;;1.25;0.75;;;;;8.12;57.77;100393.19;5118385;27;46206;-61
2022/02/21 06:23:00;;;;;;;;;3.00;0.50;;;;;8.12;57.32;100408.88;5117708;27;62661;-61
2022/02/21 06:25:26;;;;;;;;;4.00;1.00;;;;;8.09;57.34;100388.19;5117489;27;63965;-61
2022/02/21 06:27:51;;;;;;;;;2.25;0.25;;;;;8.08;57.26;100385.72;5118288;27;45470;-61
2022/02/21 06:30:17;;;;;;;;;1.00;0.00;;;;;8.06;57.30;100391.06;5117424;27;63069;-61
2022/02/21 06:32:42;;;;;;;;;1.00;1.00;;;;;8.07;57.36;100399.75;5118226;27;45345;-61
2022/02/21 06:35:10;;;;;;;;;0.00;0.00;;;;;8.07;57.52;100384.88;5118333;27;45424;-59
2022/02/21 06:37:40;;;;;;;;;1.00;0.00;;;;;8.09;57.45;100393.44;5117154;27;45298;-60
2022/02/21 06:40:07;;;;;;;;;1.00;0.00;;;;;8.09;57.45;100382.97;5118009;27;47172;-59
2022/02/21 06:42:32;;;;;;;;;1.50;0.00;;;;;8.10;57.55;100386.41;5117506;27;45678;-61
2022/02/21 06:44:57;;;;;;;;;1.25;1.00;;;;;8.10;57.49;100386.41;5117352;27;60854;-60
2022/02/21 06:47:23;;;;;;;;;3.00;0.75;;;;;8.09;57.51;100387.38;5117043;27;67170;-60
2022/02/21 06:49:48;;;;;;;;;3.00;1.00;;;;;8.08;57.48;100402.22;5116889;27;70995;-61
2022/02/21 06:52:13;;;;;;;;;1.25;1.25;;;;;8.07;57.50;100400.56;5117178;27;64167;-61
2022/02/21 06:54:39;;;;;;;;;3.25;1.00;;;;;8.05;57.73;100407.72;5117225;27;58801;-60
2022/02/21 06:57:04;;;;;;;;;1.00;1.00;;;;;8.04;57.80;100406.03;5117594;27;45235;-61
2022/02/21 06:59:30;;;;;;;;;3.25;1.00;;;;;8.04;57.79;100411.28;5117610;27;45269;-59
2022/02/21 07:01:56;;;;;;;;;1.75;0.00;;;;;8.05;57.79;100433.88;5117712;27;45260;-60
2022/02/21 07:04:22;;;;;;;;;1.00;1.00;;;;;8.06;57.74;100429.50;5117733;27;45479;-61
2022/02/21 07:06:47;;;;;;;;;1.75;0.75;;;;;8.05;57.74;100427.81;5116779;27;65440;-60
2022/02/21 07:09:14;;;;;;;;;25.75;22.00;;;;;8.03;57.84;100425.31;5116479;27;71160;-61
2022/02/21 07:11:39;;;;;;;;;3.50;1.50;;;;;8.05;57.88;100446.13;5116063;27;45903;-60
2022/02/21 07:14:05;;;;;;;;;1.50;0.00;;;;;8.05;58.27;100441.72;5117369;27;45246;-61
2022/02/21 07:16:31;;;;;;;;;1.00;0.50;;;;;8.06;57.99;100447.81;5117511;27;45240;-60
2022/02/21 07:18:57;;;;;;;;;2.00;0.75;;;;;8.07;57.83;100457.31;5116339;27;45401;-61
2022/02/21 07:21:22;;;;;;;;;1.00;0.00;;;;;8.07;57.93;100449.47;5117323;27;45177;-61
2022/02/21 07:23:47;;;;;;;;;2.50;1.00;;;;;8.08;57.94;100440.66;5116955;27;56013;-61
2022/02/21 07:26:13;;;;;;;;;1.00;0.00;;;;;8.06;57.77;100440.78;5098460;27;61910;-61
2022/02/21 07:28:38;;;;;;;;;3.75;0.25;;;;;8.06;57.82;100435.53;5116262;27;66875;-61
2022/02/21 07:31:06;;;;;;;;;3.50;0.75;;;;;8.05;57.73;100438.28;5098390;27;46301;-60
2022/02/21 07:33:32;;;;;;;;;2.50;1.00;;;;;8.04;57.69;100447.91;5117355;27;45279;-61
2022/02/21 07:35:58;;;;;;;;;3.50;2.00;;;;;8.02;57.67;100448.06;5117364;27;45246;-61
2022/02/21 07:38:23;;;;;;;;;4.00;0.00;;;;;8.02;57.73;100453.28;5116073;27;75692;-60
2022/02/21 07:40:49;;;;;;;;;2.25;0.50;;;;;8.03;57.77;100456.72;5117011;27;45340;-61
2022/02/21 07:43:14;;;;;;;;;2.00;1.00;;;;;8.04;57.74;100453.16;5116099;27;45337;-60
2022/02/21 07:45:40;;;;;;;;;6.25;2.00;;;;;8.07;57.72;100446.84;5097687;27;69272;-60
2022/02/21 07:48:05;;;;;;;;;2.75;1.75;;;;;8.09;57.80;100461.47;5115814;27;70176;-61
2022/02/21 07:50:33;;;;;;;;;2.00;2.00;;;;;8.13;57.82;100452.41;5098396;27;45430;-61
2022/02/21 07:52:59;;;;;;;;;0.50;0.50;;;;;8.17;57.79;100450.41;5117684;27;46066;-61
2022/02/21 07:55:24;;;;;;;;;6.00;1.00;;;;;8.20;57.49;100439.69;5120837;27;45322;-61
2022/02/21 07:57:50;;;;;;;;;5.25;1.00;;;;;8.20;57.55;100425.75;5120497;27;46064;-60
2022/02/21 08:00:17;;;;;;;;;4.00;1.25;;;;;8.21;57.38;100435.28;5119422;27;73398;-60
2022/02/21 08:02:42;;;;;;;;;4.00;1.00;;;;;8.22;57.65;100444.78;5120705;27;45295;-61
2022/02/21 08:05:08;;;;;;;;;3.00;2.00;;;;;8.24;57.63;100448.94;5120689;27;45244;-61
2022/02/21 08:07:33;;;;;;;;;4.00;2.00;;;;;8.27;57.48;100455.72;5120277;27;46654;-61
2022/02/21 08:09:59;;;;;;;;;1.25;1.25;;;;;8.32;57.30;100450.97;5119398;27;68236;-60
2022/02/21 08:12:24;;;;;;;;;3.50;2.00;;;;;8.31;57.21;100450.09;5119945;27;55179;-61
2022/02/21 08:14:50;;;;;;;;;4.50;1.50;;;;;8.38;57.19;100455.69;5120407;27;45442;-60
2022/02/21 08:17:15;;;;;;;;;3.00;1.00;;;;;8.44;57.01;100454.38;5119782;27;62593;-61
2022/02/21 08:19:40;;;;;;;;;2.00;1.75;;;;;8.48;56.77;100460.19;5119434;27;63684;-61
2022/02/21 08:22:06;;;;;;;;;1.50;1.50;;;;;8.53;56.67;100450.19;5119879;27;51656;-60
2022/02/21 08:24:31;;;;;;;;;0.50;0.50;;;;;8.55;56.75;100461.38;5120407;27;45476;-60
2022/02/21 08:26:57;;;;;;;;;13.75;13.50;;;;;8.57;56.76;100465.53;5119907;27;45248;-61
2022/02/21 08:29:22;;;;;;;;;3.50;2.00;;;;;8.59;56.66;100457.53;5118872;27;66536;-61
2022/02/21 08:31:48;;;;;;;;;1.75;1.00;;;;;8.64;56.62;100450.16;5118933;27;45222;-61
2022/02/21 08:34:18;;;;;;;;;3.00;1.75;;;;;8.71;56.75;100458.34;5118412;27;45236;-61
2022/02/21 08:36:44;;;;;;;;;1.00;1.00;;;;;8.78;56.64;100453.44;5119748;27;46433;-61
2022/02/21 08:39:09;;;;;;;;;6.25;2.25;;;;;8.82;56.95;100452.22;5118715;27;73412;-61
2022/02/21 08:41:35;;;;;;;;;2.00;1.00;;;;;8.89;56.23;100451.56;5119045;27;59108;-60
2022/02/21 08:44:00;;;;;;;;;2.75;1.50;;;;;8.93;56.66;100453.94;5100074;27;58642;-61
2022/02/21 08:46:25;;;;;;;;;2.00;1.75;;;;;8.98;56.57;100447.38;5119323;27;46010;-60
2022/02/21 08:48:53;;;;;;;;;10.25;4.00;;;;;9.02;56.49;100454.00;5118877;27;58741;-61
2022/02/21 08:51:19;;;;;;;;;6.75;3.00;;;;;9.06;56.31;100459.84;5119843;27;45271;-61
2022/02/21 08:53:44;;;;;;;;;1.00;1.00;;;;;9.11;55.87;100454.19;5118579;27;67803;-61
2022/02/21 08:56:09;;;;;;;;;2.00;2.00;;;;;9.10;56.23;100474.34;5118719;27;70835;-60
2022/02/21 08:58:35;;;;;;;;;5.00;3.00;;;;;9.12;56.01;100484.69;5119529;27;45200;-61
2022/02/21 09:01:00;;;;;;;;;3.25;2.00;;;;;9.12;55.82;100480.28;5119604;27;45232;-61
2022/02/21 09:03:26;;;;;;;;;4.50;2.00;;;;;9.14;56.02;100478.38;5119802;27;45539;-61
2022/02/21 09:05:54;;;;;;;;;4.75;3.00;;;;;9.16;55.88;100459.88;5119215;27;46034;-61
2022/02/21 09:08:20;;;;;;;;;2.25;1.50;;;;;9.16;55.94;100481.69;5119458;27;45344;-61
2022/02/21 09:10:45;;;;;;;;;4.00;3.00;;;;;9.19;55.83;100470.13;5119644;27;45321;-60
2022/02/21 09:13:11;;;;;;;;;7.75;2.75;;;;;9.22;55.71;100466.44;5119588;27;45515;-59
2022/02/21 09:15:37;;;;;;;;;3.75;3.00;;;;;9.24;55.83;100456.63;5118099;27;73957;-61
2022/02/21 09:18:04;;;;;;;;;5.75;3.50;;;;;9.32;55.61;100447.16;5100733;27;45906;-61
2022/02/21 09:20:30;;;;;;;;;11.50;4.75;;;;;9.40;55.57;100461.41;5118221;27;45460;-61
2022/02/21 09:22:55;;;;;;;;;7.25;6.00;;;;;9.45;55.54;100449.56;5119309;27;45283;-61
2022/02/21 09:25:20;;;;;;;;;8.75;5.00;;;;;9.53;55.35;100435.81;5119210;27;45348;-61
2022/02/21 09:27:46;;;;;;;;;6.75;6.00;;;;;9.61;55.27;100446.44;5118977;27;45329;-60
2022/02/21 09:30:12;;;;;;;;;22.75;14.75;;;;;9.71;55.50;100445.66;5100450;27;45818;-61
2022/02/21 09:32:37;;;;;;;;;22.50;17.75;;;;;9.78;55.20;100458.13;5119040;27;45366;-61
2022/02/21 09:35:03;;;;;;;;;19.75;17.00;;;;;9.87;55.06;100459.13;5118847;27;45330;-60
2022/02/21 09:37:28;;;;;;;;;11.00;4.50;;;;;9.95;54.25;100467.16;5118941;27;45338;-61
2022/02/21 09:39:53;;;;;;;;;6.50;4.00;;;;;10.01;54.02;100459.72;5118596;27;48405;-61
2022/02/21 09:42:20;;;;;;;;;5.00;3.25;;;;;10.06;54.23;100452.28;5118571;27;49261;-61
2022/02/21 09:44:46;;;;;;;;;7.75;3.00;;;;;10.17;54.16;100452.13;5118842;27;46251;-61
2022/02/21 09:47:16;;;;;;;;;9.75;5.75;;;;;10.31;53.79;100456.19;5118497;27;45165;-60
2022/02/21 09:49:41;;;;;;;;;8.00;7.00;;;;;10.47;53.39;100466.19;5100482;27;45505;-61
2022/02/21 09:52:07;;;;;;;;;17.75;10.00;;;;;10.65;53.30;100452.34;5118492;27;45394;-61
2022/02/21 09:54:33;;;;;;;;;6.25;3.50;;;;;10.78;52.62;100455.53;5117622;27;67457;-61
2022/02/21 09:56:58;;;;;;;;;7.25;5.00;;;;;10.89;52.08;100454.53;5100333;27;45476;-60
2022/02/21 09:59:24;;;;;;;;;5.50;2.75;;;;;10.96;51.92;100463.53;5118542;27;45315;-61
2022/02/21 10:01:49;;;;;;;;;11.00;4.00;;;;;11.03;52.14;100458.56;5118102;27;54107;-61
2022/02/21 10:04:26;;;;;;;;;8.25;5.00;;;;;11.07;51.49;100441.53;5099896;27;46016;-61
2022/02/21 10:06:52;;;;;;;;;4.50;3.50;;;;;11.08;51.53;100455.47;5116696;27;45845;-61
2022/02/21 10:09:17;;;;;;;;;4.50;3.25;;;;;11.04;51.04;100452.31;5118591;27;45395;-61
2022/02/21 10:11:44;;;;;;;;;6.75;1.75;;;;;11.01;51.02;100436.81;5118390;27;45361;-61
2022/02/21 10:14:28;;;;;;;;;4.00;2.00;;;;;10.95;50.86;100453.16;5118217;27;46195;-61
2022/02/21 10:16:58;;;;;;;;;5.25;2.00;;;;;10.91;51.05;100460.47;5117608;27;45386;-61
2022/02/21 10:19:25;;;;;;;;;5.50;3.00;;;;;10.87;50.94;100471.44;5118515;27;45369;-60
2022/02/21 10:22:06;;;;;;;;;4.50;3.00;;;;;10.83;51.13;100469.06;5118146;27;45557;-61
2022/02/21 10:24:41;;;;;;;;;10.50;4.75;;;;;10.81;50.83;100457.88;5117386;27;45403;-61
2022/02/21 10:27:13;;;;;;;;;9.00;5.00;;;;;10.83;50.87;100461.19;5118124;27;45910;-60
2022/02/21 10:29:51;;;;;;;;;5.00;3.00;;;;;10.89;50.90;100465.03;5118126;27;45355;-61
2022/02/21 10:32:19;;;;;;;;;2.75;2.00;;;;;10.95;50.44;100471.56;5117034;27;46227;-61
2022/02/21 10:34:45;;;;;;;;;4.75;2.75;;;;;11.01;49.89;100452.59;5117807;27;45416;-61
2022/02/21 10:37:11;;;;;;;;;6.00;2.00;;;;;11.08;49.63;100466.00;5117913;27;45896;-60
2022/02/21 10:39:36;;;;;;;;;3.25;1.00;;;;;11.20;49.45;100461.41;5117871;27;45160;-60
2022/02/21 10:42:07;;;;;;;;;3.25;2.00;;;;;11.33;48.91;100456.66;5118019;27;45292;-60
2022/02/21 10:44:35;;;;;;;;;4.75;3.00;;;;;11.48;49.05;100458.84;5117924;27;46977;-61
2022/02/21 10:47:13;;;;;;;;;9.75;5.25;;;;;11.65;49.46;100452.00;5116961;27;45869;-61
2022/02/21 10:49:56;;;;;;;;;7.00;2.50;;;;;11.86;48.78;100433.31;5117960;27;45545;-61
2022/02/21 10:52:23;;;;;;;;;4.00;2.00;;;;;12.04;48.13;100456.28;5118092;27;45466;-61
2022/02/21 10:54:49;;;;;;;;;5.00;2.00;;;;;12.21;47.79;100449.38;5117685;27;46410;-63
2022/02/21 10:57:15;;;;;;;;;7.75;3.00;;;;;12.34;47.62;100456.91;5116896;27;65176;-61
2022/02/21 10:59:40;;;;;;;;;2.75;2.00;;;;;12.44;47.03;100447.13;5117857;27;45250;-61
2022/02/21 11:02:07;;;;;;;;;4.50;3.25;;;;;12.55;47.00;100449.53;5116683;27;45495;-61
2022/02/21 11:04:35;;;;;;;;;3.25;1.00;;;;;12.71;46.46;100455.94;5117483;27;45896;-61
2022/02/21 11:07:00;;;;;;;;;3.50;2.00;;;;;12.86;46.18;100459.66;5099496;27;45361;-61
2022/02/21 11:09:27;;;;;;;;;4.25;2.50;;;;;12.95;45.94;100460.56;5117611;27;45820;-61
2022/02/21 11:11:53;;;;;;;;;2.00;2.00;;;;;12.98;45.23;100446.22;5117670;27;45197;-61
2022/02/21 11:14:19;;;;;;;;;4.50;4.00;;;;;12.99;45.13;100464.53;5098911;27;45352;-62
2022/02/21 11:16:46;;;;;;;;;4.75;3.00;;;;;13.00;44.89;100460.09;5117349;27;45855;-61
2022/02/21 11:19:15;;;;;;;;;5.25;2.75;;;;;12.95;44.60;100486.09;5117651;27;45444;-61
2022/02/21 11:21:41;;;;;;;;;6.75;2.25;;;;;12.83;44.99;100486.34;5117499;27;45459;-61
2022/02/21 11:24:07;;;;;;;;;6.50;3.00;;;;;12.73;45.05;100472.41;5117153;27;46156;-61
2022/02/21 11:26:34;;;;;;;;;5.50;3.25;;;;;12.66;45.84;100480.09;5080823;27;65878;-62